sensor_id;sensor_type;location;lat;lon;timestamp;temperature;humidity
6379;DHT22;3222;48.858;10.128;2023-06-04T00:01:04;16.50;82.90
6379;DHT22;3222;48.858;10.128;2023-06-04T00:03:31;16.50;82.90
6379;DHT22;3222;48.858;10.128;2023-06-04T00:05:57;16.50;82.90
6379;DHT22;3222;48.858;10.128;2023-06-04T00:08:22;16.50;82.20
6379;DHT22;3222;48.858;10.128;2023-06-04T00:10:48;16.50;82.20
6379;DHT22;3222;48.858;10.128;2023-06-04T00:13:14;16.50;81.80
6379;DHT22;3222;48.858;10.128;2023-06-04T00:15:39;16.50;83.00
6379;DHT22;3222;48.858;10.128;2023-06-04T00:18:05;16.40;82.90
6379;DHT22;3222;48.858;10.128;2023-06-04T00:20:31;16.30;83.00
6379;DHT22;3222;48.858;10.128;2023-06-04T00:22:56;16.30;82.50
6379;DHT22;3222;48.858;10.128;2023-06-04T00:25:22;16.30;82.10
6379;DHT22;3222;48.858;10.128;2023-06-04T00:27:48;16.20;82.90
6379;DHT22;3222;48.858;10.128;2023-06-04T00:30:13;16.20;83.30
6379;DHT22;3222;48.858;10.128;2023-06-04T00:32:39;16.20;83.20
6379;DHT22;3222;48.858;10.128;2023-06-04T00:35:06;16.20;82.80
6379;DHT22;3222;48.858;10.128;2023-06-04T00:37:32;16.20;82.60
6379;DHT22;3222;48.858;10.128;2023-06-04T00:39:58;16.20;82.80
6379;DHT22;3222;48.858;10.128;2023-06-04T00:42:24;16.20;82.60
6379;DHT22;3222;48.858;10.128;2023-06-04T00:44:50;16.10;82.70
6379;DHT22;3222;48.858;10.128;2023-06-04T00:47:16;16.20;82.90
6379;DHT22;3222;48.858;10.128;2023-06-04T00:49:44;16.10;83.00
6379;DHT22;3222;48.858;10.128;2023-06-04T00:52:12;16.10;82.30
6379;DHT22;3222;48.858;10.128;2023-06-04T00:54:39;16.10;83.50
6379;DHT22;3222;48.858;10.128;2023-06-04T00:57:05;16.10;83.70
6379;DHT22;3222;48.858;10.128;2023-06-04T00:59:33;16.00;83.90
6379;DHT22;3222;48.858;10.128;2023-06-04T01:02:03;16.10;84.00
6379;DHT22;3222;48.858;10.128;2023-06-04T01:05:01;16.10;84.10
6379;DHT22;3222;48.858;10.128;2023-06-04T01:07:30;16.10;83.50
6379;DHT22;3222;48.858;10.128;2023-06-04T01:09:56;16.10;83.10
6379;DHT22;3222;48.858;10.128;2023-06-04T01:12:22;16.10;83.70
6379;DHT22;3222;48.858;10.128;2023-06-04T01:14:48;16.00;83.40
6379;DHT22;3222;48.858;10.128;2023-06-04T01:17:19;15.90;83.40
6379;DHT22;3222;48.858;10.128;2023-06-04T01:22:29;16.00;83.00
6379;DHT22;3222;48.858;10.128;2023-06-04T01:25:02;16.00;83.50
6379;DHT22;3222;48.858;10.128;2023-06-04T01:27:28;15.90;84.50
6379;DHT22;3222;48.858;10.128;2023-06-04T01:29:56;15.90;83.80
6379;DHT22;3222;48.858;10.128;2023-06-04T01:32:23;15.90;84.10
6379;DHT22;3222;48.858;10.128;2023-06-04T01:34:49;15.90;84.50
6379;DHT22;3222;48.858;10.128;2023-06-04T01:37:15;15.90;84.50
6379;DHT22;3222;48.858;10.128;2023-06-04T01:39:42;15.80;84.90
6379;DHT22;3222;48.858;10.128;2023-06-04T01:42:08;15.70;84.90
6379;DHT22;3222;48.858;10.128;2023-06-04T01:44:34;15.80;84.60
6379;DHT22;3222;48.858;10.128;2023-06-04T01:47:00;15.80;84.10
6379;DHT22;3222;48.858;10.128;2023-06-04T01:49:26;15.80;83.80
6379;DHT22;3222;48.858;10.128;2023-06-04T01:51:51;15.80;84.10
6379;DHT22;3222;48.858;10.128;2023-06-04T01:54:17;15.80;83.80
6379;DHT22;3222;48.858;10.128;2023-06-04T01:56:43;15.80;83.90
6379;DHT22;3222;48.858;10.128;2023-06-04T01:59:09;15.80;83.30
6379;DHT22;3222;48.858;10.128;2023-06-04T02:01:38;15.70;84.60
6379;DHT22;3222;48.858;10.128;2023-06-04T02:04:03;15.60;84.10
6379;DHT22;3222;48.858;10.128;2023-06-04T02:06:29;15.60;84.30
6379;DHT22;3222;48.858;10.128;2023-06-04T02:08:55;15.60;83.90
6379;DHT22;3222;48.858;10.128;2023-06-04T02:11:21;15.60;83.80
6379;DHT22;3222;48.858;10.128;2023-06-04T02:13:47;15.60;83.90
6379;DHT22;3222;48.858;10.128;2023-06-04T02:16:13;15.50;84.90
6379;DHT22;3222;48.858;10.128;2023-06-04T02:18:38;15.50;84.60
6379;DHT22;3222;48.858;10.128;2023-06-04T02:21:04;15.40;85.80
6379;DHT22;3222;48.858;10.128;2023-06-04T02:23:30;15.30;86.00
6379;DHT22;3222;48.858;10.128;2023-06-04T02:25:55;15.20;86.40
6379;DHT22;3222;48.858;10.128;2023-06-04T02:28:21;15.10;86.20
6379;DHT22;3222;48.858;10.128;2023-06-04T02:30:47;15.10;86.70
6379;DHT22;3222;48.858;10.128;2023-06-04T02:33:14;15.00;86.80
6379;DHT22;3222;48.858;10.128;2023-06-04T02:35:39;15.10;87.30
6379;DHT22;3222;48.858;10.128;2023-06-04T02:38:06;15.00;87.50
6379;DHT22;3222;48.858;10.128;2023-06-04T02:40:32;15.00;88.20
6379;DHT22;3222;48.858;10.128;2023-06-04T02:42:58;15.00;88.70
6379;DHT22;3222;48.858;10.128;2023-06-04T02:45:24;14.90;88.40
6379;DHT22;3222;48.858;10.128;2023-06-04T02:47:50;14.90;88.70
6379;DHT22;3222;48.858;10.128;2023-06-04T02:50:16;14.90;88.90
6379;DHT22;3222;48.858;10.128;2023-06-04T02:52:42;14.80;88.90
6379;DHT22;3222;48.858;10.128;2023-06-04T02:55:09;14.90;89.30
6379;DHT22;3222;48.858;10.128;2023-06-04T02:57:38;14.90;89.50
6379;DHT22;3222;48.858;10.128;2023-06-04T03:00:05;14.90;90.00
6379;DHT22;3222;48.858;10.128;2023-06-04T03:02:42;14.90;89.30
6379;DHT22;3222;48.858;10.128;2023-06-04T03:05:10;14.90;90.00
6379;DHT22;3222;48.858;10.128;2023-06-04T03:07:36;14.70;90.00
6379;DHT22;3222;48.858;10.128;2023-06-04T03:10:02;14.60;90.20
6379;DHT22;3222;48.858;10.128;2023-06-04T03:12:30;14.50;89.90
6379;DHT22;3222;48.858;10.128;2023-06-04T03:14:56;14.50;90.10
6379;DHT22;3222;48.858;10.128;2023-06-04T03:17:22;14.60;90.10
6379;DHT22;3222;48.858;10.128;2023-06-04T03:19:47;14.50;90.10
6379;DHT22;3222;48.858;10.128;2023-06-04T03:22:14;14.40;90.30
6379;DHT22;3222;48.858;10.128;2023-06-04T03:24:41;14.30;90.50
6379;DHT22;3222;48.858;10.128;2023-06-04T03:27:08;14.40;90.50
6379;DHT22;3222;48.858;10.128;2023-06-04T03:29:34;14.40;90.50
6379;DHT22;3222;48.858;10.128;2023-06-04T03:32:03;14.30;90.60
6379;DHT22;3222;48.858;10.128;2023-06-04T03:34:30;14.20;90.70
6379;DHT22;3222;48.858;10.128;2023-06-04T03:36:58;14.10;90.90
6379;DHT22;3222;48.858;10.128;2023-06-04T03:39:25;14.20;91.00
6379;DHT22;3222;48.858;10.128;2023-06-04T03:41:51;14.20;90.80
6379;DHT22;3222;48.858;10.128;2023-06-04T03:44:19;14.30;90.80
6379;DHT22;3222;48.858;10.128;2023-06-04T03:46:45;14.10;90.70
6379;DHT22;3222;48.858;10.128;2023-06-04T03:49:13;14.10;90.80
6379;DHT22;3222;48.858;10.128;2023-06-04T03:51:40;14.10;90.80
6379;DHT22;3222;48.858;10.128;2023-06-04T03:54:06;14.00;90.70
6379;DHT22;3222;48.858;10.128;2023-06-04T03:56:32;14.20;90.90
6379;DHT22;3222;48.858;10.128;2023-06-04T03:58:58;14.20;90.70
6379;DHT22;3222;48.858;10.128;2023-06-04T04:01:24;14.20;90.80
6379;DHT22;3222;48.858;10.128;2023-06-04T04:03:51;14.10;90.80
6379;DHT22;3222;48.858;10.128;2023-06-04T04:06:18;14.10;90.90
6379;DHT22;3222;48.858;10.128;2023-06-04T04:08:44;14.10;90.90
6379;DHT22;3222;48.858;10.128;2023-06-04T04:11:15;14.10;91.10
6379;DHT22;3222;48.858;10.128;2023-06-04T04:13:41;14.20;91.20
6379;DHT22;3222;48.858;10.128;2023-06-04T04:16:07;14.10;91.20
6379;DHT22;3222;48.858;10.128;2023-06-04T04:18:35;14.20;91.40
6379;DHT22;3222;48.858;10.128;2023-06-04T04:21:02;14.20;91.40
6379;DHT22;3222;48.858;10.128;2023-06-04T04:23:29;14.10;91.50
6379;DHT22;3222;48.858;10.128;2023-06-04T04:25:55;14.10;91.80
6379;DHT22;3222;48.858;10.128;2023-06-04T04:28:25;14.00;91.90
6379;DHT22;3222;48.858;10.128;2023-06-04T04:30:57;14.00;92.20
6379;DHT22;3222;48.858;10.128;2023-06-04T04:33:25;14.00;92.20
6379;DHT22;3222;48.858;10.128;2023-06-04T04:35:51;13.90;92.40
6379;DHT22;3222;48.858;10.128;2023-06-04T04:38:20;14.00;92.40
6379;DHT22;3222;48.858;10.128;2023-06-04T04:40:53;13.90;92.30
6379;DHT22;3222;48.858;10.128;2023-06-04T04:43:32;13.90;92.30
6379;DHT22;3222;48.858;10.128;2023-06-04T04:46:03;13.90;92.60
6379;DHT22;3222;48.858;10.128;2023-06-04T04:48:29;14.00;92.60
6379;DHT22;3222;48.858;10.128;2023-06-04T04:50:55;14.10;92.50
6379;DHT22;3222;48.858;10.128;2023-06-04T04:53:21;14.10;92.60
6379;DHT22;3222;48.858;10.128;2023-06-04T04:55:47;14.10;92.80
6379;DHT22;3222;48.858;10.128;2023-06-04T04:58:13;14.30;92.20
6379;DHT22;3222;48.858;10.128;2023-06-04T05:00:39;14.40;91.80
6379;DHT22;3222;48.858;10.128;2023-06-04T05:03:05;14.50;91.20
6379;DHT22;3222;48.858;10.128;2023-06-04T05:05:32;14.60;91.00
6379;DHT22;3222;48.858;10.128;2023-06-04T05:07:59;14.60;91.20
6379;DHT22;3222;48.858;10.128;2023-06-04T05:10:30;14.60;91.40
6379;DHT22;3222;48.858;10.128;2023-06-04T05:12:59;14.60;91.20
6379;DHT22;3222;48.858;10.128;2023-06-04T05:15:32;14.50;91.30
6379;DHT22;3222;48.858;10.128;2023-06-04T05:17:58;14.50;91.30
6379;DHT22;3222;48.858;10.128;2023-06-04T05:20:30;14.50;91.10
6379;DHT22;3222;48.858;10.128;2023-06-04T05:22:56;14.60;91.30
6379;DHT22;3222;48.858;10.128;2023-06-04T05:25:22;14.50;91.50
6379;DHT22;3222;48.858;10.128;2023-06-04T05:27:48;14.60;91.00
6379;DHT22;3222;48.858;10.128;2023-06-04T05:30:15;14.60;91.10
6379;DHT22;3222;48.858;10.128;2023-06-04T05:32:41;14.70;91.10
6379;DHT22;3222;48.858;10.128;2023-06-04T05:35:09;14.70;91.00
6379;DHT22;3222;48.858;10.128;2023-06-04T05:37:37;14.70;91.10
6379;DHT22;3222;48.858;10.128;2023-06-04T05:40:06;14.80;91.10
6379;DHT22;3222;48.858;10.128;2023-06-04T05:42:34;14.80;91.20
6379;DHT22;3222;48.858;10.128;2023-06-04T05:45:00;14.90;91.50
6379;DHT22;3222;48.858;10.128;2023-06-04T05:47:27;15.00;91.60
6379;DHT22;3222;48.858;10.128;2023-06-04T05:49:54;15.00;91.30
6379;DHT22;3222;48.858;10.128;2023-06-04T05:52:20;14.90;91.20
6379;DHT22;3222;48.858;10.128;2023-06-04T05:54:46;15.00;91.70
6379;DHT22;3222;48.858;10.128;2023-06-04T05:57:12;14.90;91.80
6379;DHT22;3222;48.858;10.128;2023-06-04T05:59:38;15.00;92.00
6379;DHT22;3222;48.858;10.128;2023-06-04T06:02:06;15.00;92.00
6379;DHT22;3222;48.858;10.128;2023-06-04T06:04:33;15.10;91.80
6379;DHT22;3222;48.858;10.128;2023-06-04T06:06:59;15.10;91.40
6379;DHT22;3222;48.858;10.128;2023-06-04T06:09:24;15.10;91.50
6379;DHT22;3222;48.858;10.128;2023-06-04T06:11:50;15.10;91.70
6379;DHT22;3222;48.858;10.128;2023-06-04T06:14:16;15.20;91.80
6379;DHT22;3222;48.858;10.128;2023-06-04T06:16:41;15.30;91.50
6379;DHT22;3222;48.858;10.128;2023-06-04T06:19:07;15.30;91.60
6379;DHT22;3222;48.858;10.128;2023-06-04T06:21:33;15.40;91.50
6379;DHT22;3222;48.858;10.128;2023-06-04T06:23:59;15.40;91.50
6379;DHT22;3222;48.858;10.128;2023-06-04T06:26:25;15.40;91.60
6379;DHT22;3222;48.858;10.128;2023-06-04T06:28:54;15.50;91.40
6379;DHT22;3222;48.858;10.128;2023-06-04T06:31:20;15.60;91.60
6379;DHT22;3222;48.858;10.128;2023-06-04T06:33:46;15.60;91.70
6379;DHT22;3222;48.858;10.128;2023-06-04T06:36:11;15.60;91.30
6379;DHT22;3222;48.858;10.128;2023-06-04T06:38:37;15.60;91.60
6379;DHT22;3222;48.858;10.128;2023-06-04T06:41:03;15.60;91.70
6379;DHT22;3222;48.858;10.128;2023-06-04T06:43:29;15.70;91.60
6379;DHT22;3222;48.858;10.128;2023-06-04T06:45:55;15.70;91.40
6379;DHT22;3222;48.858;10.128;2023-06-04T06:48:20;15.70;91.90
6379;DHT22;3222;48.858;10.128;2023-06-04T06:50:46;15.80;92.10
6379;DHT22;3222;48.858;10.128;2023-06-04T06:53:12;15.90;91.60
6379;DHT22;3222;48.858;10.128;2023-06-04T06:55:38;16.00;91.20
6379;DHT22;3222;48.858;10.128;2023-06-04T06:58:03;16.10;91.40
6379;DHT22;3222;48.858;10.128;2023-06-04T07:00:29;16.10;91.20
6379;DHT22;3222;48.858;10.128;2023-06-04T07:02:54;16.20;91.20
6379;DHT22;3222;48.858;10.128;2023-06-04T07:05:22;16.10;91.10
6379;DHT22;3222;48.858;10.128;2023-06-04T07:07:47;16.10;91.20
6379;DHT22;3222;48.858;10.128;2023-06-04T07:10:13;16.30;91.00
6379;DHT22;3222;48.858;10.128;2023-06-04T07:12:39;16.30;91.10
6379;DHT22;3222;48.858;10.128;2023-06-04T07:15:06;16.30;91.20
6379;DHT22;3222;48.858;10.128;2023-06-04T07:17:33;16.40;91.40
6379;DHT22;3222;48.858;10.128;2023-06-04T07:19:59;16.40;91.30
6379;DHT22;3222;48.858;10.128;2023-06-04T07:22:25;16.50;91.20
6379;DHT22;3222;48.858;10.128;2023-06-04T07:24:51;16.50;91.30
6379;DHT22;3222;48.858;10.128;2023-06-04T07:27:17;16.60;91.40
6379;DHT22;3222;48.858;10.128;2023-06-04T07:29:44;16.60;91.40
6379;DHT22;3222;48.858;10.128;2023-06-04T07:32:10;16.70;91.30
6379;DHT22;3222;48.858;10.128;2023-06-04T07:34:38;16.70;91.50
6379;DHT22;3222;48.858;10.128;2023-06-04T07:37:03;16.60;91.50
6379;DHT22;3222;48.858;10.128;2023-06-04T07:39:29;16.70;91.50
6379;DHT22;3222;48.858;10.128;2023-06-04T07:41:55;16.80;91.60
6379;DHT22;3222;48.858;10.128;2023-06-04T07:44:21;16.80;91.50
6379;DHT22;3222;48.858;10.128;2023-06-04T07:46:46;16.80;91.30
6379;DHT22;3222;48.858;10.128;2023-06-04T07:49:12;16.90;91.20
6379;DHT22;3222;48.858;10.128;2023-06-04T07:51:37;17.00;91.30
6379;DHT22;3222;48.858;10.128;2023-06-04T07:54:03;17.20;91.00
6379;DHT22;3222;48.858;10.128;2023-06-04T07:56:29;17.20;91.10
6379;DHT22;3222;48.858;10.128;2023-06-04T07:58:54;17.20;91.60
6379;DHT22;3222;48.858;10.128;2023-06-04T08:01:21;17.30;91.30
6379;DHT22;3222;48.858;10.128;2023-06-04T08:03:47;17.40;91.20
6379;DHT22;3222;48.858;10.128;2023-06-04T08:06:13;17.50;90.60
6379;DHT22;3222;48.858;10.128;2023-06-04T08:08:44;17.50;90.50
6379;DHT22;3222;48.858;10.128;2023-06-04T08:11:11;17.50;90.80
6379;DHT22;3222;48.858;10.128;2023-06-04T08:13:37;17.70;90.60
6379;DHT22;3222;48.858;10.128;2023-06-04T08:16:03;17.80;90.30
6379;DHT22;3222;48.858;10.128;2023-06-04T08:18:28;17.70;90.40
6379;DHT22;3222;48.858;10.128;2023-06-04T08:20:55;17.70;90.40
6379;DHT22;3222;48.858;10.128;2023-06-04T08:23:20;17.70;90.60
6379;DHT22;3222;48.858;10.128;2023-06-04T08:25:46;17.70;90.70
6379;DHT22;3222;48.858;10.128;2023-06-04T08:28:14;17.80;90.20
6379;DHT22;3222;48.858;10.128;2023-06-04T08:30:41;17.80;90.10
6379;DHT22;3222;48.858;10.128;2023-06-04T08:33:07;17.80;90.40
6379;DHT22;3222;48.858;10.128;2023-06-04T08:35:33;17.90;90.60
6379;DHT22;3222;48.858;10.128;2023-06-04T08:37:58;17.90;90.70
6379;DHT22;3222;48.858;10.128;2023-06-04T08:40:24;17.90;90.70
6379;DHT22;3222;48.858;10.128;2023-06-04T08:42:50;18.20;90.40
6379;DHT22;3222;48.858;10.128;2023-06-04T08:45:20;18.20;90.50
6379;DHT22;3222;48.858;10.128;2023-06-04T08:47:50;18.40;90.00
6379;DHT22;3222;48.858;10.128;2023-06-04T08:50:23;18.50;88.70
6379;DHT22;3222;48.858;10.128;2023-06-04T08:52:54;18.50;88.80
6379;DHT22;3222;48.858;10.128;2023-06-04T08:55:20;18.60;88.70
6379;DHT22;3222;48.858;10.128;2023-06-04T08:57:50;18.70;89.00
6379;DHT22;3222;48.858;10.128;2023-06-04T09:00:17;18.60;88.30
6379;DHT22;3222;48.858;10.128;2023-06-04T09:02:44;18.60;88.30
6379;DHT22;3222;48.858;10.128;2023-06-04T09:05:19;18.60;89.40
6379;DHT22;3222;48.858;10.128;2023-06-04T09:07:46;18.60;90.20
6379;DHT22;3222;48.858;10.128;2023-06-04T09:10:17;18.60;89.90
6379;DHT22;3222;48.858;10.128;2023-06-04T09:12:45;18.60;90.10
6379;DHT22;3222;48.858;10.128;2023-06-04T09:15:12;18.50;90.30
6379;DHT22;3222;48.858;10.128;2023-06-04T09:17:37;18.50;90.40
6379;DHT22;3222;48.858;10.128;2023-06-04T09:20:03;18.50;90.20
6379;DHT22;3222;48.858;10.128;2023-06-04T09:22:37;18.50;90.10
6379;DHT22;3222;48.858;10.128;2023-06-04T09:25:06;18.60;90.20
6379;DHT22;3222;48.858;10.128;2023-06-04T09:27:39;18.60;90.80
6379;DHT22;3222;48.858;10.128;2023-06-04T09:30:06;18.60;90.50
6379;DHT22;3222;48.858;10.128;2023-06-04T09:32:33;18.70;90.70
6379;DHT22;3222;48.858;10.128;2023-06-04T09:35:13;18.80;90.40
6379;DHT22;3222;48.858;10.128;2023-06-04T09:37:54;18.80;90.30
6379;DHT22;3222;48.858;10.128;2023-06-04T09:40:21;18.80;90.20
6379;DHT22;3222;48.858;10.128;2023-06-04T09:42:48;18.90;90.00
6379;DHT22;3222;48.858;10.128;2023-06-04T09:45:50;19.00;90.30
6379;DHT22;3222;48.858;10.128;2023-06-04T09:48:21;19.00;90.10
6379;DHT22;3222;48.858;10.128;2023-06-04T09:50:47;19.00;90.50
6379;DHT22;3222;48.858;10.128;2023-06-04T09:53:18;19.10;90.70
6379;DHT22;3222;48.858;10.128;2023-06-04T09:55:58;19.10;90.70
6379;DHT22;3222;48.858;10.128;2023-06-04T09:58:26;19.10;90.70
6379;DHT22;3222;48.858;10.128;2023-06-04T10:00:54;19.20;91.00
6379;DHT22;3222;48.858;10.128;2023-06-04T10:03:24;19.20;90.90
6379;DHT22;3222;48.858;10.128;2023-06-04T10:05:52;19.50;90.20
6379;DHT22;3222;48.858;10.128;2023-06-04T10:08:20;19.50;90.30
6379;DHT22;3222;48.858;10.128;2023-06-04T10:10:47;19.50;90.40
6379;DHT22;3222;48.858;10.128;2023-06-04T10:13:18;19.60;90.10
6379;DHT22;3222;48.858;10.128;2023-06-04T10:15:48;19.70;90.10
6379;DHT22;3222;48.858;10.128;2023-06-04T10:18:15;19.60;90.30
6379;DHT22;3222;48.858;10.128;2023-06-04T10:20:41;19.70;90.00
6379;DHT22;3222;48.858;10.128;2023-06-04T10:23:08;19.80;90.00
6379;DHT22;3222;48.858;10.128;2023-06-04T10:25:35;19.70;89.50
6379;DHT22;3222;48.858;10.128;2023-06-04T10:28:02;19.70;90.10
6379;DHT22;3222;48.858;10.128;2023-06-04T10:30:29;19.80;88.70
6379;DHT22;3222;48.858;10.128;2023-06-04T10:32:57;19.90;88.90
6379;DHT22;3222;48.858;10.128;2023-06-04T10:35:30;20.00;90.00
6379;DHT22;3222;48.858;10.128;2023-06-04T10:38:06;20.00;88.80
6379;DHT22;3222;48.858;10.128;2023-06-04T10:40:33;20.00;89.60
6379;DHT22;3222;48.858;10.128;2023-06-04T10:43:08;20.00;90.10
6379;DHT22;3222;48.858;10.128;2023-06-04T10:45:35;20.10;90.30
6379;DHT22;3222;48.858;10.128;2023-06-04T10:48:05;20.10;89.40
6379;DHT22;3222;48.858;10.128;2023-06-04T10:50:32;20.10;88.80
6379;DHT22;3222;48.858;10.128;2023-06-04T10:52:59;20.10;87.70
6379;DHT22;3222;48.858;10.128;2023-06-04T10:55:30;20.20;89.40
6379;DHT22;3222;48.858;10.128;2023-06-04T10:58:00;20.20;90.00
6379;DHT22;3222;48.858;10.128;2023-06-04T11:00:44;20.30;88.30
6379;DHT22;3222;48.858;10.128;2023-06-04T11:03:12;20.40;87.40
6379;DHT22;3222;48.858;10.128;2023-06-04T11:08:07;20.50;88.00
6379;DHT22;3222;48.858;10.128;2023-06-04T11:10:38;20.60;87.10
6379;DHT22;3222;48.858;10.128;2023-06-04T11:13:05;20.70;87.40
6379;DHT22;3222;48.858;10.128;2023-06-04T11:15:41;20.80;86.30
6379;DHT22;3222;48.858;10.128;2023-06-04T11:18:07;20.70;87.30
6379;DHT22;3222;48.858;10.128;2023-06-04T11:20:32;20.90;86.00
6379;DHT22;3222;48.858;10.128;2023-06-04T11:22:59;20.90;85.50
6379;DHT22;3222;48.858;10.128;2023-06-04T11:25:26;20.80;86.60
6379;DHT22;3222;48.858;10.128;2023-06-04T11:27:53;20.80;86.90
6379;DHT22;3222;48.858;10.128;2023-06-04T11:30:19;20.80;86.50
6379;DHT22;3222;48.858;10.128;2023-06-04T11:32:45;20.90;85.90
6379;DHT22;3222;48.858;10.128;2023-06-04T11:35:11;20.80;85.70
6379;DHT22;3222;48.858;10.128;2023-06-04T11:37:37;20.90;87.20
6379;DHT22;3222;48.858;10.128;2023-06-04T11:40:14;20.80;86.90
6379;DHT22;3222;48.858;10.128;2023-06-04T11:42:40;20.80;87.00
6379;DHT22;3222;48.858;10.128;2023-06-04T11:45:12;20.80;84.80
6379;DHT22;3222;48.858;10.128;2023-06-04T11:47:37;21.10;84.60
6379;DHT22;3222;48.858;10.128;2023-06-04T11:50:03;21.00;85.00
6379;DHT22;3222;48.858;10.128;2023-06-04T11:52:29;21.00;84.00
6379;DHT22;3222;48.858;10.128;2023-06-04T11:54:55;20.90;83.70
6379;DHT22;3222;48.858;10.128;2023-06-04T11:57:21;20.90;84.50
6379;DHT22;3222;48.858;10.128;2023-06-04T11:59:47;21.00;84.00
6379;DHT22;3222;48.858;10.128;2023-06-04T12:02:13;21.10;85.30
6379;DHT22;3222;48.858;10.128;2023-06-04T12:04:38;21.10;86.00
6379;DHT22;3222;48.858;10.128;2023-06-04T12:07:04;21.00;86.20
6379;DHT22;3222;48.858;10.128;2023-06-04T12:09:33;21.10;85.30
6379;DHT22;3222;48.858;10.128;2023-06-04T12:12:04;21.30;83.20
6379;DHT22;3222;48.858;10.128;2023-06-04T12:14:30;21.40;80.30
6379;DHT22;3222;48.858;10.128;2023-06-04T12:16:57;21.40;81.90
6379;DHT22;3222;48.858;10.128;2023-06-04T12:19:24;21.40;82.40
6379;DHT22;3222;48.858;10.128;2023-06-04T12:22:00;21.40;82.70
6379;DHT22;3222;48.858;10.128;2023-06-04T12:24:31;21.50;83.60
6379;DHT22;3222;48.858;10.128;2023-06-04T12:27:08;21.50;82.50
6379;DHT22;3222;48.858;10.128;2023-06-04T12:29:35;21.60;83.30
6379;DHT22;3222;48.858;10.128;2023-06-04T12:32:08;21.60;83.20
6379;DHT22;3222;48.858;10.128;2023-06-04T12:34:34;21.60;83.90
6379;DHT22;3222;48.858;10.128;2023-06-04T12:37:01;21.60;82.00
6379;DHT22;3222;48.858;10.128;2023-06-04T12:39:28;21.60;80.90
6379;DHT22;3222;48.858;10.128;2023-06-04T12:41:55;21.60;81.80
6379;DHT22;3222;48.858;10.128;2023-06-04T12:44:21;21.70;83.10
6379;DHT22;3222;48.858;10.128;2023-06-04T12:46:47;21.80;83.60
6379;DHT22;3222;48.858;10.128;2023-06-04T12:49:12;21.90;84.30
6379;DHT22;3222;48.858;10.128;2023-06-04T12:51:38;22.00;82.50
6379;DHT22;3222;48.858;10.128;2023-06-04T12:54:04;22.10;82.60
6379;DHT22;3222;48.858;10.128;2023-06-04T12:56:30;22.20;81.80
6379;DHT22;3222;48.858;10.128;2023-06-04T12:58:56;22.30;82.30
6379;DHT22;3222;48.858;10.128;2023-06-04T13:01:22;22.40;81.40
6379;DHT22;3222;48.858;10.128;2023-06-04T13:03:47;22.50;81.40
6379;DHT22;3222;48.858;10.128;2023-06-04T13:06:13;22.50;80.80
6379;DHT22;3222;48.858;10.128;2023-06-04T13:08:39;22.50;79.20
6379;DHT22;3222;48.858;10.128;2023-06-04T13:11:05;22.50;80.50
6379;DHT22;3222;48.858;10.128;2023-06-04T13:13:31;22.60;80.30
6379;DHT22;3222;48.858;10.128;2023-06-04T13:15:57;22.70;81.20
6379;DHT22;3222;48.858;10.128;2023-06-04T13:18:23;22.70;81.40
6379;DHT22;3222;48.858;10.128;2023-06-04T13:20:48;22.70;81.00
6379;DHT22;3222;48.858;10.128;2023-06-04T13:23:14;22.70;79.50
6379;DHT22;3222;48.858;10.128;2023-06-04T13:25:40;22.80;80.60
6379;DHT22;3222;48.858;10.128;2023-06-04T13:28:06;22.80;81.10
6379;DHT22;3222;48.858;10.128;2023-06-04T13:30:35;23.00;77.60
6379;DHT22;3222;48.858;10.128;2023-06-04T13:33:02;23.00;78.50
6379;DHT22;3222;48.858;10.128;2023-06-04T13:35:28;23.00;79.00
6379;DHT22;3222;48.858;10.128;2023-06-04T13:37:54;23.00;79.70
6379;DHT22;3222;48.858;10.128;2023-06-04T13:40:20;23.10;80.60
6379;DHT22;3222;48.858;10.128;2023-06-04T13:42:46;23.10;79.30
6379;DHT22;3222;48.858;10.128;2023-06-04T13:45:11;23.20;79.10
6379;DHT22;3222;48.858;10.128;2023-06-04T13:47:37;23.20;79.40
6379;DHT22;3222;48.858;10.128;2023-06-04T13:50:03;23.30;79.90
6379;DHT22;3222;48.858;10.128;2023-06-04T13:52:30;23.30;79.00
6379;DHT22;3222;48.858;10.128;2023-06-04T13:54:56;23.40;76.10
6379;DHT22;3222;48.858;10.128;2023-06-04T13:57:24;23.40;76.90
6379;DHT22;3222;48.858;10.128;2023-06-04T13:59:50;23.50;77.00
6379;DHT22;3222;48.858;10.128;2023-06-04T14:02:16;23.50;76.70
6379;DHT22;3222;48.858;10.128;2023-06-04T14:04:42;23.50;76.20
6379;DHT22;3222;48.858;10.128;2023-06-04T14:07:07;23.60;75.40
6379;DHT22;3222;48.858;10.128;2023-06-04T14:09:33;23.50;76.60
6379;DHT22;3222;48.858;10.128;2023-06-04T14:11:59;23.40;77.60
6379;DHT22;3222;48.858;10.128;2023-06-04T14:14:25;23.40;77.60
6379;DHT22;3222;48.858;10.128;2023-06-04T14:16:50;23.50;78.10
6379;DHT22;3222;48.858;10.128;2023-06-04T14:19:16;23.60;76.00
6379;DHT22;3222;48.858;10.128;2023-06-04T14:21:43;23.60;75.60
6379;DHT22;3222;48.858;10.128;2023-06-04T14:24:08;23.50;75.50
6379;DHT22;3222;48.858;10.128;2023-06-04T14:26:35;23.50;75.30
6379;DHT22;3222;48.858;10.128;2023-06-04T14:29:01;23.50;75.00
6379;DHT22;3222;48.858;10.128;2023-06-04T14:31:27;23.50;75.40
6379;DHT22;3222;48.858;10.128;2023-06-04T14:33:53;23.60;75.30
6379;DHT22;3222;48.858;10.128;2023-06-04T14:36:18;23.50;75.90
6379;DHT22;3222;48.858;10.128;2023-06-04T14:38:44;23.60;77.30
6379;DHT22;3222;48.858;10.128;2023-06-04T14:41:10;23.50;78.00
6379;DHT22;3222;48.858;10.128;2023-06-04T14:43:36;23.60;76.80
6379;DHT22;3222;48.858;10.128;2023-06-04T14:46:02;23.70;77.20
6379;DHT22;3222;48.858;10.128;2023-06-04T14:48:27;23.90;75.40
6379;DHT22;3222;48.858;10.128;2023-06-04T14:50:53;23.90;76.70
6379;DHT22;3222;48.858;10.128;2023-06-04T14:53:21;23.80;75.60
6379;DHT22;3222;48.858;10.128;2023-06-04T14:55:47;23.70;77.50
6379;DHT22;3222;48.858;10.128;2023-06-04T14:58:12;23.70;76.90
6379;DHT22;3222;48.858;10.128;2023-06-04T15:00:38;23.70;76.80
6379;DHT22;3222;48.858;10.128;2023-06-04T15:03:04;23.80;76.70
6379;DHT22;3222;48.858;10.128;2023-06-04T15:05:31;23.90;76.00
6379;DHT22;3222;48.858;10.128;2023-06-04T15:07:57;23.90;75.60
6379;DHT22;3222;48.858;10.128;2023-06-04T15:10:24;24.00;75.80
6379;DHT22;3222;48.858;10.128;2023-06-04T15:12:50;24.00;75.20
6379;DHT22;3222;48.858;10.128;2023-06-04T15:15:17;24.00;72.80
6379;DHT22;3222;48.858;10.128;2023-06-04T15:17:42;24.00;74.00
6379;DHT22;3222;48.858;10.128;2023-06-04T15:20:08;24.00;73.00
6379;DHT22;3222;48.858;10.128;2023-06-04T15:22:34;23.90;74.30
6379;DHT22;3222;48.858;10.128;2023-06-04T15:25:00;23.70;74.50
6379;DHT22;3222;48.858;10.128;2023-06-04T15:27:25;23.60;75.20
6379;DHT22;3222;48.858;10.128;2023-06-04T15:29:51;23.70;75.70
6379;DHT22;3222;48.858;10.128;2023-06-04T15:32:17;23.50;74.90
6379;DHT22;3222;48.858;10.128;2023-06-04T15:34:43;23.40;74.30
6379;DHT22;3222;48.858;10.128;2023-06-04T15:37:09;23.30;75.10
6379;DHT22;3222;48.858;10.128;2023-06-04T15:39:34;23.30;74.90
6379;DHT22;3222;48.858;10.128;2023-06-04T15:42:00;23.30;75.80
6379;DHT22;3222;48.858;10.128;2023-06-04T15:44:27;23.10;76.50
6379;DHT22;3222;48.858;10.128;2023-06-04T15:46:53;23.10;76.30
6379;DHT22;3222;48.858;10.128;2023-06-04T15:49:18;23.10;77.50